sensor_id;sensor_type;location;lat;lon;timestamp;pressure;altitude;pressure_sealevel;temperature;humidity
62201;BME280;48197;42.732;27.192;2023-03-15T00:02:13;99083.00;;;-0.74;100.00
62201;BME280;48197;42.732;27.192;2023-03-15T00:04:40;99069.75;;;-0.76;100.00
62201;BME280;48197;42.732;27.192;2023-03-15T00:07:06;99069.75;;;-0.76;100.00
62201;BME280;48197;42.732;27.192;2023-03-15T00:09:33;99059.03;;;-0.72;100.00
62201;BME280;48197;42.732;27.192;2023-03-15T00:12:00;99056.50;;;-0.65;100.00
62201;BME280;48197;42.732;27.192;2023-03-15T00:14:28;99055.25;;;-0.68;100.00
62201;BME280;48197;42.732;27.192;2023-03-15T00:16:55;99047.81;;;-0.71;100.00
62201;BME280;48197;42.732;27.192;2023-03-15T00:19:21;99049.19;;;-0.77;100.00
62201;BME280;48197;42.732;27.192;2023-03-15T00:21:47;99046.16;;;-0.88;100.00
62201;BME280;48197;42.732;27.192;2023-03-15T00:24:13;99041.78;;;-0.92;100.00
62201;BME280;48197;42.732;27.192;2023-03-15T00:26:39;99044.25;;;-0.87;100.00
62201;BME280;48197;42.732;27.192;2023-03-15T00:29:06;99031.22;;;-0.82;100.00
62201;BME280;48197;42.732;27.192;2023-03-15T00:31:33;99020.72;;;-0.83;100.00
62201;BME280;48197;42.732;27.192;2023-03-15T00:34:01;99021.63;;;-0.79;100.00
62201;BME280;48197;42.732;27.192;2023-03-15T00:36:27;99021.81;;;-0.72;100.00
62201;BME280;48197;42.732;27.192;2023-03-15T00:38:54;99010.63;;;-0.70;100.00
62201;BME280;48197;42.732;27.192;2023-03-15T00:41:21;99012.44;;;-0.74;100.00
62201;BME280;48197;42.732;27.192;2023-03-15T00:43:48;98990.81;;;-0.71;100.00
62201;BME280;48197;42.732;27.192;2023-03-15T00:46:16;98991.91;;;-0.59;100.00
62201;BME280;48197;42.732;27.192;2023-03-15T00:48:43;98985.75;;;-0.56;100.00
62201;BME280;48197;42.732;27.192;2023-03-15T00:51:13;98981.50;;;-0.57;100.00
62201;BME280;48197;42.732;27.192;2023-03-15T00:53:42;98977.97;;;-0.58;100.00
62201;BME280;48197;42.732;27.192;2023-03-15T00:56:09;98978.13;;;-0.67;100.00
62201;BME280;48197;42.732;27.192;2023-03-15T00:58:37;98980.09;;;-0.79;100.00
62201;BME280;48197;42.732;27.192;2023-03-15T01:01:11;98971.97;;;-0.79;100.00
62201;BME280;48197;42.732;27.192;2023-03-15T01:03:38;98961.41;;;-0.69;100.00
62201;BME280;48197;42.732;27.192;2023-03-15T01:06:06;98953.25;;;-0.69;100.00
62201;BME280;48197;42.732;27.192;2023-03-15T01:08:32;98955.91;;;-0.72;100.00
62201;BME280;48197;42.732;27.192;2023-03-15T01:11:03;98947.75;;;-0.72;100.00
62201;BME280;48197;42.732;27.192;2023-03-15T01:13:30;98946.94;;;-0.73;100.00
62201;BME280;48197;42.732;27.192;2023-03-15T01:15:56;98943.00;;;-0.75;100.00
62201;BME280;48197;42.732;27.192;2023-03-15T01:18:23;98942.66;;;-0.74;100.00
62201;BME280;48197;42.732;27.192;2023-03-15T01:20:49;98944.84;;;-0.79;100.00
62201;BME280;48197;42.732;27.192;2023-03-15T01:23:16;98938.44;;;-0.87;100.00
62201;BME280;48197;42.732;27.192;2023-03-15T01:25:43;98939.47;;;-0.92;100.00
62201;BME280;48197;42.732;27.192;2023-03-15T01:28:09;98936.19;;;-0.85;100.00
62201;BME280;48197;42.732;27.192;2023-03-15T01:30:36;98937.13;;;-0.77;100.00
62201;BME280;48197;42.732;27.192;2023-03-15T01:33:02;98925.84;;;-0.79;100.00
62201;BME280;48197;42.732;27.192;2023-03-15T01:35:29;98927.78;;;-0.80;100.00
62201;BME280;48197;42.732;27.192;2023-03-15T01:37:55;98923.22;;;-0.76;100.00
62201;BME280;48197;42.732;27.192;2023-03-15T01:40:22;98919.81;;;-0.73;100.00
62201;BME280;48197;42.732;27.192;2023-03-15T01:48:15;98915.19;;;-0.72;100.00
62201;BME280;48197;42.732;27.192;2023-03-15T01:50:42;98921.41;;;-0.72;100.00
62201;BME280;48197;42.732;27.192;2023-03-15T01:53:09;98915.34;;;-0.81;100.00
62201;BME280;48197;42.732;27.192;2023-03-15T01:55:36;98917.88;;;-0.88;100.00
62201;BME280;48197;42.732;27.192;2023-03-15T01:58:02;98911.66;;;-0.89;100.00
62201;BME280;48197;42.732;27.192;2023-03-15T02:00:32;98911.22;;;-0.91;100.00
62201;BME280;48197;42.732;27.192;2023-03-15T02:02:59;98909.28;;;-0.90;100.00
62201;BME280;48197;42.732;27.192;2023-03-15T02:05:31;98909.66;;;-0.76;100.00
62201;BME280;48197;42.732;27.192;2023-03-15T02:07:58;98906.16;;;-0.60;100.00
62201;BME280;48197;42.732;27.192;2023-03-15T02:10:39;98899.88;;;-0.49;100.00
62201;BME280;48197;42.732;27.192;2023-03-15T02:13:07;98898.63;;;-0.51;100.00
62201;BME280;48197;42.732;27.192;2023-03-15T02:15:35;98898.91;;;-0.56;100.00
62201;BME280;48197;42.732;27.192;2023-03-15T02:18:01;98902.13;;;-0.67;100.00
62201;BME280;48197;42.732;27.192;2023-03-15T02:20:36;98899.41;;;-0.67;100.00
62201;BME280;48197;42.732;27.192;2023-03-15T02:23:07;98896.19;;;-0.56;100.00
62201;BME280;48197;42.732;27.192;2023-03-15T02:28:19;98899.84;;;-0.80;100.00
62201;BME280;48197;42.732;27.192;2023-03-15T02:30:46;98899.84;;;-0.80;100.00
62201;BME280;48197;42.732;27.192;2023-03-15T02:33:18;98901.78;;;-0.81;100.00
62201;BME280;48197;42.732;27.192;2023-03-15T02:35:46;98904.56;;;-0.77;100.00
62201;BME280;48197;42.732;27.192;2023-03-15T02:38:12;98909.94;;;-0.81;100.00
62201;BME280;48197;42.732;27.192;2023-03-15T02:40:39;98911.38;;;-0.84;100.00
62201;BME280;48197;42.732;27.192;2023-03-15T02:43:10;98916.75;;;-0.87;100.00
62201;BME280;48197;42.732;27.192;2023-03-15T02:45:39;98919.69;;;-0.92;100.00
62201;BME280;48197;42.732;27.192;2023-03-15T02:48:06;98929.44;;;-1.19;100.00
62201;BME280;48197;42.732;27.192;2023-03-15T02:50:34;98915.75;;;-1.51;100.00
62201;BME280;48197;42.732;27.192;2023-03-15T02:53:00;98908.47;;;-1.75;100.00
62201;BME280;48197;42.732;27.192;2023-03-15T02:55:28;98914.13;;;-1.93;100.00
62201;BME280;48197;42.732;27.192;2023-03-15T02:57:55;98915.94;;;-2.09;100.00
62201;BME280;48197;42.732;27.192;2023-03-15T03:00:21;98918.44;;;-2.16;100.00
62201;BME280;48197;42.732;27.192;2023-03-15T03:02:48;98910.19;;;-2.08;100.00
62201;BME280;48197;42.732;27.192;2023-03-15T03:05:15;98909.50;;;-1.92;100.00
62201;BME280;48197;42.732;27.192;2023-03-15T03:07:42;98915.34;;;-1.78;100.00
62201;BME280;48197;42.732;27.192;2023-03-15T03:10:09;98919.41;;;-1.72;100.00
62201;BME280;48197;42.732;27.192;2023-03-15T03:12:36;98909.81;;;-1.81;100.00
62201;BME280;48197;42.732;27.192;2023-03-15T03:15:02;98909.28;;;-1.87;100.00
62201;BME280;48197;42.732;27.192;2023-03-15T03:17:30;98917.09;;;-1.98;100.00
62201;BME280;48197;42.732;27.192;2023-03-15T03:19:56;98927.22;;;-2.07;100.00
62201;BME280;48197;42.732;27.192;2023-03-15T03:22:23;98919.69;;;-2.14;100.00
62201;BME280;48197;42.732;27.192;2023-03-15T03:24:50;98922.94;;;-2.20;100.00
62201;BME280;48197;42.732;27.192;2023-03-15T03:27:16;98921.03;;;-2.08;100.00
62201;BME280;48197;42.732;27.192;2023-03-15T03:29:43;98927.44;;;-1.75;100.00
62201;BME280;48197;42.732;27.192;2023-03-15T03:32:10;98929.78;;;-1.61;100.00
62201;BME280;48197;42.732;27.192;2023-03-15T03:34:37;98942.16;;;-1.48;100.00
62201;BME280;48197;42.732;27.192;2023-03-15T03:37:04;98924.56;;;-1.54;100.00
62201;BME280;48197;42.732;27.192;2023-03-15T03:39:30;98926.50;;;-1.67;100.00
62201;BME280;48197;42.732;27.192;2023-03-15T03:41:57;98930.97;;;-1.87;100.00
62201;BME280;48197;42.732;27.192;2023-03-15T03:44:23;98926.31;;;-1.99;100.00
62201;BME280;48197;42.732;27.192;2023-03-15T03:46:50;98922.50;;;-1.98;100.00
62201;BME280;48197;42.732;27.192;2023-03-15T03:49:16;98922.16;;;-2.09;100.00
62201;BME280;48197;42.732;27.192;2023-03-15T03:51:43;98927.91;;;-2.10;100.00
62201;BME280;48197;42.732;27.192;2023-03-15T03:54:09;98923.19;;;-2.13;100.00
62201;BME280;48197;42.732;27.192;2023-03-15T03:56:35;98925.22;;;-1.98;100.00
62201;BME280;48197;42.732;27.192;2023-03-15T03:59:02;98924.84;;;-1.96;100.00
62201;BME280;48197;42.732;27.192;2023-03-15T04:01:29;98919.78;;;-1.98;100.00
62201;BME280;48197;42.732;27.192;2023-03-15T04:03:56;98918.31;;;-1.95;100.00
62201;BME280;48197;42.732;27.192;2023-03-15T04:06:23;98921.59;;;-1.90;100.00
62201;BME280;48197;42.732;27.192;2023-03-15T04:08:49;98917.28;;;-1.78;100.00
62201;BME280;48197;42.732;27.192;2023-03-15T04:11:16;98913.44;;;-1.77;100.00
62201;BME280;48197;42.732;27.192;2023-03-15T04:13:43;98921.47;;;-1.81;100.00
62201;BME280;48197;42.732;27.192;2023-03-15T04:16:13;98929.03;;;-1.99;100.00
62201;BME280;48197;42.732;27.192;2023-03-15T04:18:39;98923.16;;;-2.01;100.00
62201;BME280;48197;42.732;27.192;2023-03-15T04:21:05;98923.03;;;-1.92;100.00
62201;BME280;48197;42.732;27.192;2023-03-15T04:23:36;98923.16;;;-1.89;100.00
62201;BME280;48197;42.732;27.192;2023-03-15T04:26:02;98921.69;;;-1.86;100.00
62201;BME280;48197;42.732;27.192;2023-03-15T04:28:30;98921.59;;;-1.90;100.00
62201;BME280;48197;42.732;27.192;2023-03-15T04:30:57;98918.84;;;-1.77;100.00
62201;BME280;48197;42.732;27.192;2023-03-15T04:33:27;98915.59;;;-1.71;100.00
62201;BME280;48197;42.732;27.192;2023-03-15T04:35:53;98910.69;;;-1.65;100.00
62201;BME280;48197;42.732;27.192;2023-03-15T04:38:20;98907.06;;;-1.57;100.00
62201;BME280;48197;42.732;27.192;2023-03-15T04:40:54;98904.63;;;-1.34;100.00
62201;BME280;48197;42.732;27.192;2023-03-15T04:43:21;98902.72;;;-1.17;100.00
62201;BME280;48197;42.732;27.192;2023-03-15T04:45:49;98901.47;;;-1.08;100.00
62201;BME280;48197;42.732;27.192;2023-03-15T04:48:17;98894.38;;;-0.96;100.00
62201;BME280;48197;42.732;27.192;2023-03-15T04:50:43;98893.03;;;-0.74;100.00
62201;BME280;48197;42.732;27.192;2023-03-15T04:53:10;98902.22;;;-0.47;100.00
62201;BME280;48197;42.732;27.192;2023-03-15T04:55:36;98897.06;;;-0.21;100.00
62201;BME280;48197;42.732;27.192;2023-03-15T04:58:02;98896.16;;;-0.09;100.00
62201;BME280;48197;42.732;27.192;2023-03-15T05:00:29;98884.69;;;-0.02;100.00
62201;BME280;48197;42.732;27.192;2023-03-15T05:02:55;98886.75;;;0.05;100.00
62201;BME280;48197;42.732;27.192;2023-03-15T05:05:22;98879.63;;;0.16;100.00
62201;BME280;48197;42.732;27.192;2023-03-15T05:07:49;98870.94;;;0.26;100.00
62201;BME280;48197;42.732;27.192;2023-03-15T05:10:16;98878.22;;;0.42;100.00
62201;BME280;48197;42.732;27.192;2023-03-15T05:12:53;98879.16;;;0.69;100.00
62201;BME280;48197;42.732;27.192;2023-03-15T05:15:21;98880.19;;;1.03;100.00
62201;BME280;48197;42.732;27.192;2023-03-15T05:18:00;98877.06;;;1.47;100.00
62201;BME280;48197;42.732;27.192;2023-03-15T05:20:26;98879.91;;;1.77;100.00
62201;BME280;48197;42.732;27.192;2023-03-15T05:22:53;98875.22;;;1.78;100.00
62201;BME280;48197;42.732;27.192;2023-03-15T05:25:20;98870.63;;;1.82;100.00
62201;BME280;48197;42.732;27.192;2023-03-15T05:27:49;98866.69;;;2.06;100.00
62201;BME280;48197;42.732;27.192;2023-03-15T05:30:18;98870.31;;;2.44;100.00
62201;BME280;48197;42.732;27.192;2023-03-15T05:32:45;98876.50;;;3.09;100.00
62201;BME280;48197;42.732;27.192;2023-03-15T05:35:11;98871.50;;;3.62;100.00
62201;BME280;48197;42.732;27.192;2023-03-15T05:37:38;98874.56;;;4.05;100.00
62201;BME280;48197;42.732;27.192;2023-03-15T05:40:05;98883.84;;;4.60;100.00
62201;BME280;48197;42.732;27.192;2023-03-15T05:42:33;98880.53;;;5.45;100.00
62201;BME280;48197;42.732;27.192;2023-03-15T05:44:59;98877.75;;;6.24;100.00
62201;BME280;48197;42.732;27.192;2023-03-15T05:47:33;98872.22;;;6.53;100.00
62201;BME280;48197;42.732;27.192;2023-03-15T05:50:01;98875.03;;;6.24;100.00
62201;BME280;48197;42.732;27.192;2023-03-15T05:52:30;98872.72;;;5.76;100.00
62201;BME280;48197;42.732;27.192;2023-03-15T05:55:05;98875.06;;;5.63;100.00
62201;BME280;48197;42.732;27.192;2023-03-15T05:57:33;98870.72;;;6.20;100.00
62201;BME280;48197;42.732;27.192;2023-03-15T06:00:00;98867.59;;;6.21;100.00
62201;BME280;48197;42.732;27.192;2023-03-15T06:02:29;98865.53;;;6.54;100.00
62201;BME280;48197;42.732;27.192;2023-03-15T06:04:57;98868.94;;;7.46;100.00
62201;BME280;48197;42.732;27.192;2023-03-15T06:07:23;98875.09;;;8.06;100.00
62201;BME280;48197;42.732;27.192;2023-03-15T06:09:50;98867.81;;;8.30;100.00
62201;BME280;48197;42.732;27.192;2023-03-15T06:12:17;98871.69;;;8.36;100.00
62201;BME280;48197;42.732;27.192;2023-03-15T06:14:45;98872.47;;;8.33;100.00
62201;BME280;48197;42.732;27.192;2023-03-15T06:17:10;98869.28;;;8.38;100.00
62201;BME280;48197;42.732;27.192;2023-03-15T06:19:37;98863.38;;;8.74;100.00
62201;BME280;48197;42.732;27.192;2023-03-15T06:22:02;98848.59;;;8.92;100.00
62201;BME280;48197;42.732;27.192;2023-03-15T06:24:30;98847.19;;;8.49;100.00
62201;BME280;48197;42.732;27.192;2023-03-15T06:26:56;98833.72;;;8.17;100.00
62201;BME280;48197;42.732;27.192;2023-03-15T06:29:22;98835.03;;;8.05;100.00
62201;BME280;48197;42.732;27.192;2023-03-15T06:31:49;98826.56;;;8.23;100.00
62201;BME280;48197;42.732;27.192;2023-03-15T06:34:23;98818.00;;;8.83;100.00
62201;BME280;48197;42.732;27.192;2023-03-15T06:36:49;98817.66;;;9.35;95.46
62201;BME280;48197;42.732;27.192;2023-03-15T06:39:17;98805.38;;;9.39;94.15
62201;BME280;48197;42.732;27.192;2023-03-15T06:41:43;98819.03;;;9.47;92.07
62201;BME280;48197;42.732;27.192;2023-03-15T06:44:09;98819.69;;;9.04;93.78
62201;BME280;48197;42.732;27.192;2023-03-15T06:46:41;98825.50;;;9.60;90.80
62201;BME280;48197;42.732;27.192;2023-03-15T06:49:09;98817.28;;;10.04;88.86
62201;BME280;48197;42.732;27.192;2023-03-15T06:51:36;98824.91;;;9.96;86.04
62201;BME280;48197;42.732;27.192;2023-03-15T06:54:05;98819.63;;;10.05;84.80
62201;BME280;48197;42.732;27.192;2023-03-15T06:59:18;98813.19;;;11.90;75.87
62201;BME280;48197;42.732;27.192;2023-03-15T07:01:44;98800.19;;;13.13;72.09
62201;BME280;48197;42.732;27.192;2023-03-15T07:04:11;98799.94;;;13.59;64.13
62201;BME280;48197;42.732;27.192;2023-03-15T07:09:27;98801.38;;;13.76;61.07
62201;BME280;48197;42.732;27.192;2023-03-15T07:12:06;98794.41;;;12.95;60.29
62201;BME280;48197;42.732;27.192;2023-03-15T07:14:33;98793.06;;;12.74;61.11
62201;BME280;48197;42.732;27.192;2023-03-15T07:17:00;98796.44;;;13.33;59.73
62201;BME280;48197;42.732;27.192;2023-03-15T07:19:26;98789.00;;;13.04;57.41
62201;BME280;48197;42.732;27.192;2023-03-15T07:22:06;98797.63;;;12.80;54.73
62201;BME280;48197;42.732;27.192;2023-03-15T07:24:32;98786.75;;;12.99;54.08
62201;BME280;48197;42.732;27.192;2023-03-15T07:26:59;98789.94;;;13.74;52.81
62201;BME280;48197;42.732;27.192;2023-03-15T07:29:25;98795.41;;;14.22;49.47
62201;BME280;48197;42.732;27.192;2023-03-15T07:31:51;98790.50;;;14.26;50.01
62201;BME280;48197;42.732;27.192;2023-03-15T07:34:22;98789.63;;;13.94;49.80
62201;BME280;48197;42.732;27.192;2023-03-15T07:36:48;98781.56;;;13.87;48.88
62201;BME280;48197;42.732;27.192;2023-03-15T07:42:38;98762.34;;;13.80;50.48
62201;BME280;48197;42.732;27.192;2023-03-15T07:45:08;98775.88;;;13.43;50.53
62201;BME280;48197;42.732;27.192;2023-03-15T07:47:40;98766.66;;;13.20;51.24
62201;BME280;48197;42.732;27.192;2023-03-15T07:50:12;98755.13;;;13.09;53.18
62201;BME280;48197;42.732;27.192;2023-03-15T07:52:37;98750.81;;;12.15;53.26
62201;BME280;48197;42.732;27.192;2023-03-15T07:55:12;98748.38;;;11.42;56.16
62201;BME280;48197;42.732;27.192;2023-03-15T07:57:45;98759.53;;;11.38;58.62
62201;BME280;48197;42.732;27.192;2023-03-15T08:00:11;98765.34;;;11.73;59.24
62201;BME280;48197;42.732;27.192;2023-03-15T08:02:41;98762.50;;;11.77;57.70
62201;BME280;48197;42.732;27.192;2023-03-15T08:05:09;98758.41;;;11.98;58.17
62201;BME280;48197;42.732;27.192;2023-03-15T08:07:36;98747.59;;;12.03;57.25
62201;BME280;48197;42.732;27.192;2023-03-15T08:10:03;98749.88;;;11.76;57.56
62201;BME280;48197;42.732;27.192;2023-03-15T08:12:31;98757.00;;;11.28;59.47
62201;BME280;48197;42.732;27.192;2023-03-15T08:15:09;98762.09;;;11.62;59.05
62201;BME280;48197;42.732;27.192;2023-03-15T08:17:36;98760.63;;;12.32;58.89
62201;BME280;48197;42.732;27.192;2023-03-15T08:20:03;98759.47;;;12.59;56.66
62201;BME280;48197;42.732;27.192;2023-03-15T08:31:32;98757.84;;;12.32;57.31
62201;BME280;48197;42.732;27.192;2023-03-15T08:34:00;98755.69;;;12.65;54.79
62201;BME280;48197;42.732;27.192;2023-03-15T08:36:29;98751.59;;;12.96;53.69
62201;BME280;48197;42.732;27.192;2023-03-15T08:38:58;98756.25;;;12.99;53.76
62201;BME280;48197;42.732;27.192;2023-03-15T08:41:26;98758.00;;;13.44;53.19
62201;BME280;48197;42.732;27.192;2023-03-15T08:43:53;98742.28;;;13.63;51.65
62201;BME280;48197;42.732;27.192;2023-03-15T08:46:21;98742.19;;;13.66;51.77
62201;BME280;48197;42.732;27.192;2023-03-15T08:48:51;98734.47;;;13.83;51.57
62201;BME280;48197;42.732;27.192;2023-03-15T08:51:18;98735.59;;;14.39;51.39
62201;BME280;48197;42.732;27.192;2023-03-15T08:53:45;98732.59;;;14.78;49.51
62201;BME280;48197;42.732;27.192;2023-03-15T08:56:11;98740.13;;;15.08;48.36
62201;BME280;48197;42.732;27.192;2023-03-15T08:58:38;98732.91;;;15.29;48.44
62201;BME280;48197;42.732;27.192;2023-03-15T09:01:05;98731.94;;;15.14;46.71
62201;BME280;48197;42.732;27.192;2023-03-15T09:03:31;98717.66;;;14.94;47.35
62201;BME280;48197;42.732;27.192;2023-03-15T09:05:58;98716.25;;;14.89;48.48
62201;BME280;48197;42.732;27.192;2023-03-15T09:08:25;98717.03;;;14.89;49.49
62201;BME280;48197;42.732;27.192;2023-03-15T09:10:55;98724.78;;;14.95;47.72
62201;BME280;48197;42.732;27.192;2023-03-15T09:13:23;98723.81;;;14.88;47.44
62201;BME280;48197;42.732;27.192;2023-03-15T09:15:49;98722.91;;;14.92;46.22
62201;BME280;48197;42.732;27.192;2023-03-15T09:18:16;98725.72;;;15.01;45.76
62201;BME280;48197;42.732;27.192;2023-03-15T09:20:44;98722.75;;;14.86;46.68
62201;BME280;48197;42.732;27.192;2023-03-15T09:23:09;98716.47;;;14.41;46.68
62201;BME280;48197;42.732;27.192;2023-03-15T09:25:35;98721.03;;;14.26;47.43
62201;BME280;48197;42.732;27.192;2023-03-15T09:28:05;98722.72;;;14.23;48.67
62201;BME280;48197;42.732;27.192;2023-03-15T09:30:32;98727.47;;;14.01;50.71
62201;BME280;48197;42.732;27.192;2023-03-15T09:32:59;98724.69;;;14.23;49.44
62201;BME280;48197;42.732;27.192;2023-03-15T09:35:25;98716.78;;;14.43;47.45
62201;BME280;48197;42.732;27.192;2023-03-15T09:37:52;98717.00;;;14.49;47.81
62201;BME280;48197;42.732;27.192;2023-03-15T10:16:54;98656.22;;;15.28;39.72
62201;BME280;48197;42.732;27.192;2023-03-15T10:24:59;98649.22;;;15.05;38.60
62201;BME280;48197;42.732;27.192;2023-03-15T10:27:31;98651.72;;;15.31;38.33
62201;BME280;48197;42.732;27.192;2023-03-15T10:30:00;98647.63;;;14.86;37.27
62201;BME280;48197;42.732;27.192;2023-03-15T10:32:33;98642.88;;;14.96;37.94
62201;BME280;48197;42.732;27.192;2023-03-15T10:35:05;98631.00;;;15.41;36.60
62201;BME280;48197;42.732;27.192;2023-03-15T10:37:37;98633.66;;;15.73;36.89
62201;BME280;48197;42.732;27.192;2023-03-15T10:40:04;98631.59;;;15.91;36.63
62201;BME280;48197;42.732;27.192;2023-03-15T10:42:35;98633.47;;;15.76;36.18
62201;BME280;48197;42.732;27.192;2023-03-15T10:45:10;98622.66;;;15.60;36.44
62201;BME280;48197;42.732;27.192;2023-03-15T10:47:40;98630.53;;;15.52;36.31
62201;BME280;48197;42.732;27.192;2023-03-15T10:50:08;98615.53;;;15.59;36.81
62201;BME280;48197;42.732;27.192;2023-03-15T10:52:36;98615.06;;;15.88;36.84
62201;BME280;48197;42.732;27.192;2023-03-15T10:55:10;98610.97;;;16.07;37.52
62201;BME280;48197;42.732;27.192;2023-03-15T10:57:39;98608.81;;;16.11;36.96
62201;BME280;48197;42.732;27.192;2023-03-15T11:00:28;98601.59;;;16.29;36.40
62201;BME280;48197;42.732;27.192;2023-03-15T11:03:04;98585.50;;;15.81;36.16
62201;BME280;48197;42.732;27.192;2023-03-15T11:05:40;98587.97;;;15.88;37.33
62201;BME280;48197;42.732;27.192;2023-03-15T11:08:52;98581.44;;;15.91;37.65
62201;BME280;48197;42.732;27.192;2023-03-15T11:10:57;98579.28;;;15.86;37.23
62201;BME280;48197;42.732;27.192;2023-03-15T11:13:25;98572.13;;;16.04;38.05
62201;BME280;48197;42.732;27.192;2023-03-15T11:15:54;98572.63;;;16.36;36.99
62201;BME280;48197;42.732;27.192;2023-03-15T11:18:25;98572.59;;;16.69;37.12
62201;BME280;48197;42.732;27.192;2023-03-15T11:20:53;98569.78;;;17.41;36.41
62201;BME280;48197;42.732;27.192;2023-03-15T11:23:23;98572.81;;;17.82;35.06
62201;BME280;48197;42.732;27.192;2023-03-15T11:25:51;98561.06;;;17.93;33.98
62201;BME280;48197;42.732;27.192;2023-03-15T11:28:18;98565.66;;;18.11;33.86
62201;BME280;48197;42.732;27.192;2023-03-15T11:30:45;98560.00;;;17.90;33.36
62201;BME280;48197;42.732;27.192;2023-03-15T11:33:19;98552.91;;;17.50;33.81
62201;BME280;48197;42.732;27.192;2023-03-15T11:35:49;98552.22;;;17.41;34.15
62201;BME280;48197;42.732;27.192;2023-03-15T11:38:24;98554.47;;;17.66;34.29
62201;BME280;48197;42.732;27.192;2023-03-15T11:40:55;98547.25;;;17.74;34.34
62201;BME280;48197;42.732;27.192;2023-03-15T11:43:37;98542.66;;;17.86;33.75
62201;BME280;48197;42.732;27.192;2023-03-15T11:46:08;98547.91;;;17.54;34.02
62201;BME280;48197;42.732;27.192;2023-03-15T11:48:39;98538.56;;;17.43;33.73
62201;BME280;48197;42.732;27.192;2023-03-15T11:51:13;98543.94;;;17.31;33.56
62201;BME280;48197;42.732;27.192;2023-03-15T11:53:45;98540.78;;;17.00;34.41
62201;BME280;48197;42.732;27.192;2023-03-15T11:56:25;98533.81;;;16.80;35.59
62201;BME280;48197;42.732;27.192;2023-03-15T11:59:05;98542.25;;;17.10;35.32
62201;BME280;48197;42.732;27.192;2023-03-15T12:01:34;98537.28;;;17.29;35.83
62201;BME280;48197;42.732;27.192;2023-03-15T12:06:45;98533.47;;;16.78;35.50
62201;BME280;48197;42.732;27.192;2023-03-15T12:09:53;98533.34;;;16.48;36.71
62201;BME280;48197;42.732;27.192;2023-03-15T12:12:05;98531.44;;;15.97;36.94
62201;BME280;48197;42.732;27.192;2023-03-15T12:14:33;98525.13;;;15.87;37.73
62201;BME280;48197;42.732;27.192;2023-03-15T12:19:57;98526.56;;;15.74;38.03
62201;BME280;48197;42.732;27.192;2023-03-15T12:22:24;98534.44;;;15.66;38.34
62201;BME280;48197;42.732;27.192;2023-03-15T12:24:57;98527.66;;;15.48;37.91
62201;BME280;48197;42.732;27.192;2023-03-15T12:27:23;98534.63;;;15.44;38.19
62201;BME280;48197;42.732;27.192;2023-03-15T12:30:01;98533.56;;;15.41;38.41
62201;BME280;48197;42.732;27.192;2023-03-15T12:32:28;98535.53;;;15.68;38.80
62201;BME280;48197;42.732;27.192;2023-03-15T12:34:55;98538.13;;;15.90;38.11
62201;BME280;48197;42.732;27.192;2023-03-15T12:37:26;98533.66;;;16.50;37.06
62201;BME280;48197;42.732;27.192;2023-03-15T12:53:02;98534.38;;;16.60;39.37
62201;BME280;48197;42.732;27.192;2023-03-15T12:55:32;98540.84;;;16.66;40.18
62201;BME280;48197;42.732;27.192;2023-03-15T12:58:00;98530.00;;;17.46;39.20
62201;BME280;48197;42.732;27.192;2023-03-15T13:00:31;98529.81;;;18.09;37.58
62201;BME280;48197;42.732;27.192;2023-03-15T13:03:10;98528.13;;;18.17;37.74
62201;BME280;48197;42.732;27.192;2023-03-15T13:19:22;98532.69;;;17.41;38.91
62201;BME280;48197;42.732;27.192;2023-03-15T13:29:42;98515.03;;;18.65;35.72
62201;BME280;48197;42.732;27.192;2023-03-15T13:32:13;98510.88;;;18.95;35.32
62201;BME280;48197;42.732;27.192;2023-03-15T13:34:41;98510.13;;;18.95;34.97
62201;BME280;48197;42.732;27.192;2023-03-15T13:37:19;98505.47;;;18.51;35.72
62201;BME280;48197;42.732;27.192;2023-03-15T13:39:55;98513.25;;;18.26;35.75
62201;BME280;48197;42.732;27.192;2023-03-15T13:42:22;98508.31;;;18.36;36.09
62201;BME280;48197;42.732;27.192;2023-03-15T13:45:05;98507.97;;;18.13;36.13
62201;BME280;48197;42.732;27.192;2023-03-15T13:47:35;98507.22;;;18.13;35.79
62201;BME280;48197;42.732;27.192;2023-03-15T13:50:05;98510.50;;;18.11;35.49
62201;BME280;48197;42.732;27.192;2023-03-15T13:52:33;98507.75;;;17.82;36.11
62201;BME280;48197;42.732;27.192;2023-03-15T13:54:59;98505.34;;;17.89;36.39
62201;BME280;48197;42.732;27.192;2023-03-15T13:57:27;98507.75;;;17.97;35.74
62201;BME280;48197;42.732;27.192;2023-03-15T14:05:13;98506.88;;;17.75;36.69
62201;BME280;48197;42.732;27.192;2023-03-15T14:07:42;98494.72;;;17.93;37.19
62201;BME280;48197;42.732;27.192;2023-03-15T14:10:27;98499.09;;;17.94;36.87
62201;BME280;48197;42.732;27.192;2023-03-15T14:12:54;98502.25;;;17.87;37.53
62201;BME280;48197;42.732;27.192;2023-03-15T14:15:40;98508.34;;;17.56;38.11
62201;BME280;48197;42.732;27.192;2023-03-15T14:20:37;98499.66;;;17.24;38.82
62201;BME280;48197;42.732;27.192;2023-03-15T14:23:15;98508.56;;;16.99;39.84
62201;BME280;48197;42.732;27.192;2023-03-15T14:25:42;98511.78;;;16.82;41.01
62201;BME280;48197;42.732;27.192;2023-03-15T14:28:11;98514.31;;;16.71;41.15
62201;BME280;48197;42.732;27.192;2023-03-15T14:30:41;98508.69;;;16.56;41.53
62201;BME280;48197;42.732;27.192;2023-03-15T14:36:23;98506.81;;;14.98;44.91
62201;BME280;48197;42.732;27.192;2023-03-15T14:38:50;98509.38;;;14.37;46.46
62201;BME280;48197;42.732;27.192;2023-03-15T14:41:28;98510.91;;;13.88;48.42
62201;BME280;48197;42.732;27.192;2023-03-15T14:44:01;98514.47;;;13.57;48.89
62201;BME280;48197;42.732;27.192;2023-03-15T14:46:32;98511.63;;;13.48;49.28
62201;BME280;48197;42.732;27.192;2023-03-15T14:48:59;98508.66;;;13.74;48.58
62201;BME280;48197;42.732;27.192;2023-03-15T14:51:26;98508.50;;;13.68;48.19
62201;BME280;48197;42.732;27.192;2023-03-15T14:53:54;98506.63;;;13.34;48.10